WZZ267 EPWA-LHBP
Flight info
| Callsign | WZZ267 |
|---|---|
| Flight time | 0h 56m |
| Altitude | 34000 |
| Route | EVINA DCT KUKAM DCT BABKO/N0437F350 DCT ULPUK DCT EDEMU |
| Aircraft | A21N/M-SDE1E2E3FGIJ1J4RWXY/LB1 |
Departure
| Time | 2026-05-07 11:48 |
|---|---|
| Airport | Warsaw Chopin Airport (EPWA) |
Arrival
| Time | 2026-05-07 12:44 |
|---|---|
| Airport | Budapest Liszt Ferenc International Airport (LHBP) |
| Time | Latitude | Longitude | Altitude | Speed | Heading |
|---|---|---|---|---|---|
| 2026-05-07 11:02 | 52.17656 | 20.96293 | 344 ft | 0 kts | 242° |
| 2026-05-07 11:39 | 52.17652 | 20.96283 | 344 ft | 4 kts | 242° |
| 2026-05-07 11:40 | 52.17634 | 20.96226 | 348 ft | 7 kts | 234° |
| 2026-05-07 11:40 | 52.17589 | 20.96223 | 348 ft | 8 kts | 154° |
| 2026-05-07 11:40 | 52.17540 | 20.96266 | 350 ft | 9 kts | 152° |
| 2026-05-07 11:40 | 52.17484 | 20.96315 | 349 ft | 10 kts | 152° |
| 2026-05-07 11:41 | 52.17423 | 20.96369 | 352 ft | 11 kts | 152° |
| 2026-05-07 11:41 | 52.17342 | 20.96438 | 349 ft | 16 kts | 150° |
| 2026-05-07 11:41 | 52.17243 | 20.96525 | 346 ft | 17 kts | 152° |
| 2026-05-07 11:41 | 52.17139 | 20.96617 | 348 ft | 17 kts | 149° |
| 2026-05-07 11:42 | 52.17029 | 20.96713 | 348 ft | 18 kts | 153° |
| 2026-05-07 11:42 | 52.16916 | 20.96811 | 346 ft | 19 kts | 152° |
| 2026-05-07 11:42 | 52.16796 | 20.96914 | 349 ft | 20 kts | 150° |
| 2026-05-07 11:42 | 52.16695 | 20.97006 | 344 ft | 15 kts | 152° |
| 2026-05-07 11:43 | 52.16635 | 20.97058 | 348 ft | 9 kts | 152° |
| 2026-05-07 11:43 | 52.16590 | 20.97096 | 349 ft | 0 kts | 152° |
| 2026-05-07 11:44 | 52.16588 | 20.97098 | 348 ft | 2 kts | 152° |
| 2026-05-07 11:44 | 52.16555 | 20.97128 | 343 ft | 10 kts | 152° |
| 2026-05-07 11:45 | 52.16471 | 20.97200 | 348 ft | 15 kts | 152° |
| 2026-05-07 11:45 | 52.16400 | 20.97325 | 347 ft | 16 kts | 113° |
| 2026-05-07 11:45 | 52.16353 | 20.97502 | 348 ft | 18 kts | 114° |
| 2026-05-07 11:45 | 52.16299 | 20.97695 | 349 ft | 20 kts | 115° |
| 2026-05-07 11:46 | 52.16240 | 20.97904 | 347 ft | 21 kts | 115° |
| 2026-05-07 11:46 | 52.16192 | 20.98076 | 348 ft | 13 kts | 114° |
| 2026-05-07 11:46 | 52.16149 | 20.98217 | 347 ft | 12 kts | 122° |
| 2026-05-07 11:46 | 52.16109 | 20.98309 | 352 ft | 8 kts | 125° |
| 2026-05-07 11:47 | 52.16120 | 20.98334 | 348 ft | 6 kts | 298° |
| 2026-05-07 11:47 | 52.16126 | 20.98311 | 343 ft | 0 kts | 292° |
| 2026-05-07 11:47 | 52.16205 | 20.98019 | 350 ft | 66 kts | 295° |
| 2026-05-07 11:48 | 52.16501 | 20.96970 | 348 ft | 135 kts | 295° |
| 2026-05-07 11:48 | 52.16948 | 20.95373 | 573 ft | 159 kts | 295° |
| 2026-05-07 11:48 | 52.17394 | 20.93761 | 1242 ft | 156 kts | 294° |
| 2026-05-07 11:48 | 52.17850 | 20.92121 | 1767 ft | 165 kts | 294° |
| 2026-05-07 11:49 | 52.18318 | 20.90323 | 2198 ft | 182 kts | 286° |
| 2026-05-07 11:49 | 52.18289 | 20.88175 | 2644 ft | 201 kts | 257° |
| 2026-05-07 11:49 | 52.17919 | 20.85887 | 3168 ft | 221 kts | 255° |
| 2026-05-07 11:49 | 52.17519 | 20.83330 | 3610 ft | 243 kts | 256° |
| 2026-05-07 11:50 | 52.17101 | 20.80559 | 4245 ft | 258 kts | 256° |
| 2026-05-07 11:50 | 52.16673 | 20.77688 | 5109 ft | 263 kts | 256° |
| 2026-05-07 11:50 | 52.16240 | 20.74776 | 6022 ft | 266 kts | 256° |
| 2026-05-07 11:50 | 52.15697 | 20.71892 | 6898 ft | 268 kts | 244° |
| 2026-05-07 11:51 | 52.14573 | 20.69479 | 7734 ft | 271 kts | 222° |
| 2026-05-07 11:51 | 52.13092 | 20.67568 | 8565 ft | 274 kts | 217° |
| 2026-05-07 11:51 | 52.11555 | 20.65692 | 9367 ft | 278 kts | 217° |
| 2026-05-07 11:51 | 52.10002 | 20.63780 | 10125 ft | 284 kts | 217° |
| 2026-05-07 11:52 | 52.08385 | 20.61772 | 10541 ft | 302 kts | 218° |
| 2026-05-07 11:52 | 52.06674 | 20.59629 | 10969 ft | 317 kts | 218° |
| 2026-05-07 11:52 | 52.04912 | 20.57416 | 11643 ft | 323 kts | 218° |
| 2026-05-07 11:52 | 52.03129 | 20.55175 | 12392 ft | 326 kts | 218° |
| 2026-05-07 11:53 | 52.01330 | 20.52909 | 13176 ft | 329 kts | 218° |
| 2026-05-07 11:53 | 51.99514 | 20.50624 | 13919 ft | 332 kts | 218° |
| 2026-05-07 11:53 | 51.97678 | 20.48314 | 14645 ft | 335 kts | 218° |
| 2026-05-07 11:53 | 51.95811 | 20.46028 | 15355 ft | 338 kts | 214° |
| 2026-05-07 11:54 | 51.93684 | 20.44380 | 16028 ft | 343 kts | 196° |
| 2026-05-07 11:54 | 51.91313 | 20.43777 | 16701 ft | 347 kts | 186° |
| 2026-05-07 11:54 | 51.88896 | 20.43463 | 17364 ft | 350 kts | 186° |
| 2026-05-07 11:54 | 51.86455 | 20.43154 | 18002 ft | 353 kts | 186° |
| 2026-05-07 11:55 | 51.83996 | 20.42814 | 18647 ft | 356 kts | 186° |
| 2026-05-07 11:55 | 51.81547 | 20.42459 | 19253 ft | 360 kts | 187° |
| 2026-05-07 11:55 | 51.79016 | 20.42082 | 19849 ft | 363 kts | 187° |
| 2026-05-07 11:55 | 51.76488 | 20.41699 | 20424 ft | 366 kts | 187° |
| 2026-05-07 11:56 | 51.73977 | 20.41317 | 20978 ft | 369 kts | 187° |
| 2026-05-07 11:56 | 51.72247 | 20.41055 | 21356 ft | 371 kts | 187° |
| 2026-05-07 11:56 | 51.68821 | 20.40536 | 22057 ft | 375 kts | 187° |
| 2026-05-07 11:56 | 51.67063 | 20.40272 | 22398 ft | 376 kts | 187° |
| 2026-05-07 11:57 | 51.63597 | 20.39755 | 22996 ft | 380 kts | 187° |
| 2026-05-07 11:57 | 51.61817 | 20.39482 | 23299 ft | 382 kts | 187° |
| 2026-05-07 11:57 | 51.59160 | 20.39076 | 23745 ft | 385 kts | 187° |
| 2026-05-07 11:57 | 51.56488 | 20.38671 | 24185 ft | 387 kts | 187° |
| 2026-05-07 11:58 | 51.53797 | 20.38264 | 24615 ft | 389 kts | 187° |
| 2026-05-07 11:58 | 51.51093 | 20.37856 | 25004 ft | 391 kts | 187° |
| 2026-05-07 11:58 | 51.48382 | 20.37445 | 25392 ft | 393 kts | 187° |
| 2026-05-07 11:58 | 51.45648 | 20.37035 | 25767 ft | 395 kts | 187° |
| 2026-05-07 11:59 | 51.42903 | 20.36619 | 26134 ft | 397 kts | 187° |
| 2026-05-07 11:59 | 51.40151 | 20.36191 | 26480 ft | 399 kts | 188° |
| 2026-05-07 11:59 | 51.37429 | 20.35334 | 26810 ft | 399 kts | 197° |
| 2026-05-07 11:59 | 51.34814 | 20.34025 | 27139 ft | 400 kts | 199° |
| 2026-05-07 12:00 | 51.32137 | 20.32595 | 27452 ft | 401 kts | 200° |
| 2026-05-07 12:00 | 51.29519 | 20.31203 | 27782 ft | 403 kts | 199° |
| 2026-05-07 12:00 | 51.26845 | 20.29800 | 28099 ft | 404 kts | 199° |
| 2026-05-07 12:00 | 51.24166 | 20.28396 | 28392 ft | 406 kts | 199° |
| 2026-05-07 12:01 | 51.21478 | 20.26990 | 28685 ft | 408 kts | 199° |
| 2026-05-07 12:01 | 51.18778 | 20.25591 | 28976 ft | 409 kts | 199° |
| 2026-05-07 12:01 | 51.16065 | 20.24187 | 29247 ft | 410 kts | 199° |
| 2026-05-07 12:01 | 51.13342 | 20.22793 | 29505 ft | 412 kts | 199° |
| 2026-05-07 12:02 | 51.10605 | 20.21394 | 29766 ft | 413 kts | 199° |
| 2026-05-07 12:02 | 51.07865 | 20.19991 | 30021 ft | 414 kts | 199° |
| 2026-05-07 12:02 | 51.05118 | 20.18583 | 30252 ft | 416 kts | 199° |
| 2026-05-07 12:02 | 51.02356 | 20.17170 | 30490 ft | 417 kts | 199° |
| 2026-05-07 12:03 | 50.99591 | 20.15754 | 30723 ft | 419 kts | 199° |
| 2026-05-07 12:03 | 50.96819 | 20.14333 | 30933 ft | 420 kts | 199° |
| 2026-05-07 12:03 | 50.94031 | 20.12902 | 31184 ft | 421 kts | 199° |
| 2026-05-07 12:03 | 50.91244 | 20.11474 | 31451 ft | 421 kts | 199° |
| 2026-05-07 12:04 | 50.88466 | 20.10056 | 31729 ft | 420 kts | 199° |
| 2026-05-07 12:04 | 50.85685 | 20.08638 | 32001 ft | 419 kts | 199° |
| 2026-05-07 12:04 | 50.82913 | 20.07229 | 32250 ft | 418 kts | 199° |
| 2026-05-07 12:04 | 50.80140 | 20.05819 | 32489 ft | 418 kts | 199° |
| 2026-05-07 12:05 | 50.77375 | 20.04414 | 32707 ft | 418 kts | 199° |
| 2026-05-07 12:05 | 50.74603 | 20.03009 | 32932 ft | 418 kts | 199° |
| 2026-05-07 12:05 | 50.71839 | 20.01612 | 33151 ft | 417 kts | 199° |
| 2026-05-07 12:05 | 50.69078 | 20.00217 | 33354 ft | 417 kts | 199° |
| 2026-05-07 12:06 | 50.66318 | 19.98821 | 33575 ft | 416 kts | 199° |
| 2026-05-07 12:06 | 50.63571 | 19.97435 | 33807 ft | 415 kts | 199° |
| 2026-05-07 12:06 | 50.60822 | 19.96046 | 33963 ft | 416 kts | 199° |
| 2026-05-07 12:07 | 50.55305 | 19.93270 | 33968 ft | 416 kts | 198° |
| 2026-05-07 12:07 | 50.49793 | 19.90507 | 33950 ft | 416 kts | 199° |
| 2026-05-07 12:08 | 50.44288 | 19.87763 | 33948 ft | 415 kts | 199° |
| 2026-05-07 12:08 | 50.38788 | 19.85023 | 33937 ft | 414 kts | 199° |
| 2026-05-07 12:09 | 50.33299 | 19.82277 | 33939 ft | 415 kts | 199° |
| 2026-05-07 12:09 | 50.27802 | 19.79536 | 33938 ft | 415 kts | 199° |
| 2026-05-07 12:10 | 50.22304 | 19.76815 | 33947 ft | 414 kts | 199° |
| 2026-05-07 12:10 | 50.16806 | 19.74105 | 33938 ft | 414 kts | 199° |
| 2026-05-07 12:11 | 50.11302 | 19.71389 | 33937 ft | 414 kts | 199° |
| 2026-05-07 12:11 | 50.05809 | 19.68679 | 33930 ft | 414 kts | 199° |
| 2026-05-07 12:12 | 50.00310 | 19.65974 | 33934 ft | 414 kts | 199° |
| 2026-05-07 12:12 | 49.94815 | 19.63280 | 33946 ft | 415 kts | 199° |
| 2026-05-07 12:13 | 49.89349 | 19.60616 | 33942 ft | 414 kts | 199° |
| 2026-05-07 12:13 | 49.83845 | 19.57933 | 33938 ft | 414 kts | 199° |
| 2026-05-07 12:14 | 49.78355 | 19.55259 | 33944 ft | 414 kts | 199° |
| 2026-05-07 12:14 | 49.72860 | 19.52604 | 33937 ft | 414 kts | 198° |
| 2026-05-07 12:15 | 49.67361 | 19.49950 | 33936 ft | 414 kts | 199° |
| 2026-05-07 12:15 | 49.61821 | 19.47550 | 33952 ft | 415 kts | 190° |
| 2026-05-07 12:15 | 49.58925 | 19.47330 | 33944 ft | 418 kts | 179° |
| 2026-05-07 12:16 | 49.56022 | 19.47793 | 33959 ft | 420 kts | 175° |
| 2026-05-07 12:16 | 49.50235 | 19.48975 | 33948 ft | 420 kts | 175° |
| 2026-05-07 12:17 | 49.44442 | 19.50091 | 33945 ft | 419 kts | 175° |
| 2026-05-07 12:17 | 49.38654 | 19.51171 | 33947 ft | 419 kts | 175° |
| 2026-05-07 12:18 | 49.32870 | 19.52254 | 33957 ft | 419 kts | 175° |
| 2026-05-07 12:18 | 49.27077 | 19.53343 | 33956 ft | 419 kts | 175° |
| 2026-05-07 12:19 | 49.21283 | 19.54420 | 33962 ft | 419 kts | 175° |
| 2026-05-07 12:19 | 49.15494 | 19.55495 | 33964 ft | 419 kts | 175° |
| 2026-05-07 12:20 | 49.09731 | 19.56565 | 33962 ft | 420 kts | 175° |
| 2026-05-07 12:20 | 49.03937 | 19.57622 | 33959 ft | 420 kts | 175° |
| 2026-05-07 12:21 | 48.98142 | 19.58688 | 33968 ft | 419 kts | 175° |
| 2026-05-07 12:21 | 48.92354 | 19.59751 | 33971 ft | 419 kts | 175° |
| 2026-05-07 12:22 | 48.86555 | 19.60814 | 33969 ft | 420 kts | 175° |
| 2026-05-07 12:22 | 48.83653 | 19.61344 | 33271 ft | 420 kts | 175° |
| 2026-05-07 12:22 | 48.80750 | 19.61875 | 32522 ft | 420 kts | 175° |
| 2026-05-07 12:22 | 48.77867 | 19.62431 | 31887 ft | 416 kts | 173° |
| 2026-05-07 12:23 | 48.75031 | 19.63235 | 31285 ft | 412 kts | 171° |
| 2026-05-07 12:23 | 48.72246 | 19.64095 | 30721 ft | 406 kts | 171° |
| 2026-05-07 12:23 | 48.69497 | 19.64951 | 30180 ft | 401 kts | 171° |
| 2026-05-07 12:23 | 48.66785 | 19.65792 | 29628 ft | 395 kts | 170° |
| 2026-05-07 12:24 | 48.64111 | 19.66620 | 29078 ft | 390 kts | 171° |
| 2026-05-07 12:24 | 48.61477 | 19.67431 | 28520 ft | 384 kts | 171° |
| 2026-05-07 12:24 | 48.58861 | 19.68237 | 27996 ft | 382 kts | 171° |
| 2026-05-07 12:24 | 48.56275 | 19.69029 | 27489 ft | 376 kts | 171° |
| 2026-05-07 12:25 | 48.53729 | 19.69807 | 26979 ft | 371 kts | 171° |
| 2026-05-07 12:25 | 48.51214 | 19.70573 | 26455 ft | 367 kts | 171° |
| 2026-05-07 12:25 | 48.48729 | 19.71327 | 25955 ft | 362 kts | 171° |
| 2026-05-07 12:25 | 48.46275 | 19.72072 | 25470 ft | 357 kts | 171° |
| 2026-05-07 12:26 | 48.43856 | 19.72809 | 24987 ft | 353 kts | 171° |
| 2026-05-07 12:26 | 48.41458 | 19.73537 | 24505 ft | 351 kts | 171° |
| 2026-05-07 12:26 | 48.39068 | 19.74263 | 24011 ft | 349 kts | 171° |
| 2026-05-07 12:26 | 48.36693 | 19.74985 | 23561 ft | 346 kts | 171° |
| 2026-05-07 12:27 | 48.34344 | 19.75699 | 23247 ft | 345 kts | 171° |
| 2026-05-07 12:27 | 48.31996 | 19.76411 | 22978 ft | 343 kts | 171° |
| 2026-05-07 12:27 | 48.29666 | 19.77117 | 22724 ft | 341 kts | 171° |
| 2026-05-07 12:27 | 48.27344 | 19.77818 | 22466 ft | 339 kts | 170° |
| 2026-05-07 12:28 | 48.25027 | 19.78518 | 22212 ft | 339 kts | 171° |
| 2026-05-07 12:28 | 48.22724 | 19.79213 | 21975 ft | 337 kts | 170° |
| 2026-05-07 12:28 | 48.20424 | 19.79907 | 21718 ft | 336 kts | 170° |
| 2026-05-07 12:28 | 48.18137 | 19.80548 | 21464 ft | 334 kts | 175° |
| 2026-05-07 12:29 | 48.15865 | 19.80523 | 21215 ft | 330 kts | 188° |
| 2026-05-07 12:29 | 48.13595 | 19.80016 | 20970 ft | 329 kts | 190° |
| 2026-05-07 12:29 | 48.11316 | 19.79441 | 20719 ft | 328 kts | 190° |
| 2026-05-07 12:29 | 48.09070 | 19.78880 | 20468 ft | 326 kts | 190° |
| 2026-05-07 12:30 | 48.06836 | 19.78342 | 20220 ft | 325 kts | 190° |
| 2026-05-07 12:30 | 48.04603 | 19.77816 | 19970 ft | 324 kts | 189° |
| 2026-05-07 12:30 | 48.02412 | 19.77300 | 19631 ft | 321 kts | 189° |
| 2026-05-07 12:30 | 48.00216 | 19.76785 | 19211 ft | 318 kts | 189° |
| 2026-05-07 12:31 | 47.98038 | 19.76276 | 18791 ft | 315 kts | 189° |
| 2026-05-07 12:31 | 47.95852 | 19.75766 | 18372 ft | 313 kts | 189° |
| 2026-05-07 12:31 | 47.93706 | 19.75266 | 17960 ft | 310 kts | 189° |
| 2026-05-07 12:31 | 47.91611 | 19.74778 | 17555 ft | 308 kts | 189° |
| 2026-05-07 12:32 | 47.89497 | 19.74286 | 17163 ft | 306 kts | 189° |
| 2026-05-07 12:32 | 47.87375 | 19.73793 | 16772 ft | 304 kts | 189° |
| 2026-05-07 12:32 | 47.85321 | 19.73315 | 16405 ft | 302 kts | 190° |
| 2026-05-07 12:32 | 47.83296 | 19.72504 | 16017 ft | 301 kts | 205° |
| 2026-05-07 12:33 | 47.80023 | 19.68672 | 15270 ft | 301 kts | 223° |
| 2026-05-07 12:33 | 47.78510 | 19.66527 | 14903 ft | 301 kts | 223° |
| 2026-05-07 12:33 | 47.76990 | 19.64394 | 14515 ft | 301 kts | 223° |
| 2026-05-07 12:34 | 47.75457 | 19.62267 | 14117 ft | 302 kts | 222° |
| 2026-05-07 12:34 | 47.73818 | 19.60336 | 13521 ft | 303 kts | 209° |
| 2026-05-07 12:34 | 47.71812 | 19.59313 | 12740 ft | 310 kts | 188° |
| 2026-05-07 12:34 | 47.69639 | 19.59148 | 12016 ft | 314 kts | 181° |
| 2026-05-07 12:35 | 47.67456 | 19.59147 | 11288 ft | 312 kts | 181° |
| 2026-05-07 12:35 | 47.65297 | 19.59131 | 10601 ft | 309 kts | 181° |
| 2026-05-07 12:35 | 47.63158 | 19.59097 | 9874 ft | 307 kts | 182° |
| 2026-05-07 12:35 | 47.61046 | 19.59048 | 9354 ft | 299 kts | 182° |
| 2026-05-07 12:36 | 47.59007 | 19.58993 | 9007 ft | 287 kts | 182° |
| 2026-05-07 12:36 | 47.57026 | 19.58936 | 8579 ft | 284 kts | 182° |
| 2026-05-07 12:36 | 47.55048 | 19.58874 | 8080 ft | 284 kts | 182° |
| 2026-05-07 12:36 | 47.53077 | 19.58814 | 7614 ft | 282 kts | 182° |
| 2026-05-07 12:37 | 47.51128 | 19.58755 | 7173 ft | 279 kts | 182° |
| 2026-05-07 12:37 | 47.49197 | 19.58694 | 6706 ft | 277 kts | 182° |
| 2026-05-07 12:37 | 47.47277 | 19.58635 | 6316 ft | 273 kts | 182° |
| 2026-05-07 12:37 | 47.45384 | 19.58577 | 5878 ft | 272 kts | 182° |
| 2026-05-07 12:38 | 47.43497 | 19.58521 | 5418 ft | 270 kts | 182° |
| 2026-05-07 12:38 | 47.41632 | 19.58463 | 5026 ft | 267 kts | 182° |
| 2026-05-07 12:38 | 47.39787 | 19.58408 | 4666 ft | 262 kts | 182° |
| 2026-05-07 12:38 | 47.38009 | 19.58354 | 4468 ft | 250 kts | 182° |
| 2026-05-07 12:39 | 47.36314 | 19.58224 | 4261 ft | 239 kts | 190° |
| 2026-05-07 12:39 | 47.34809 | 19.57324 | 3959 ft | 234 kts | 216° |
| 2026-05-07 12:39 | 47.33595 | 19.55754 | 3589 ft | 231 kts | 223° |
| 2026-05-07 12:39 | 47.32428 | 19.54110 | 3263 ft | 230 kts | 223° |
| 2026-05-07 12:40 | 47.31307 | 19.52471 | 3023 ft | 225 kts | 230° |
| 2026-05-07 12:40 | 47.30619 | 19.50474 | 2939 ft | 213 kts | 258° |
| 2026-05-07 12:40 | 47.30658 | 19.48382 | 2930 ft | 206 kts | 290° |
| 2026-05-07 12:40 | 47.31416 | 19.46613 | 2978 ft | 210 kts | 310° |
| 2026-05-07 12:41 | 47.32434 | 19.45072 | 2996 ft | 210 kts | 314° |
| 2026-05-07 12:41 | 47.33483 | 19.43575 | 2947 ft | 210 kts | 313° |
| 2026-05-07 12:41 | 47.34448 | 19.42046 | 2817 ft | 195 kts | 311° |
| 2026-05-07 12:41 | 47.35343 | 19.40611 | 2567 ft | 184 kts | 310° |
| 2026-05-07 12:42 | 47.36199 | 19.39236 | 2328 ft | 175 kts | 310° |
| 2026-05-07 12:42 | 47.36996 | 19.37953 | 2069 ft | 169 kts | 310° |
| 2026-05-07 12:42 | 47.37773 | 19.36701 | 1816 ft | 162 kts | 309° |
| 2026-05-07 12:42 | 47.38519 | 19.35499 | 1581 ft | 155 kts | 309° |
| 2026-05-07 12:43 | 47.39240 | 19.34337 | 1372 ft | 150 kts | 309° |
| 2026-05-07 12:43 | 47.39928 | 19.33207 | 1184 ft | 150 kts | 309° |
| 2026-05-07 12:43 | 47.40634 | 19.32082 | 976 ft | 149 kts | 309° |
| 2026-05-07 12:43 | 47.41328 | 19.30943 | 778 ft | 149 kts | 309° |
| 2026-05-07 12:44 | 47.42030 | 19.29815 | 574 ft | 149 kts | 310° |
| 2026-05-07 12:44 | 47.42716 | 19.28704 | 453 ft | 137 kts | 311° |
| 2026-05-07 12:44 | 47.43232 | 19.27874 | 464 ft | 81 kts | 312° |
| 2026-05-07 12:44 | 47.43488 | 19.27462 | 477 ft | 41 kts | 313° |
| 2026-05-07 12:45 | 47.43599 | 19.27284 | 479 ft | 29 kts | 312° |
| 2026-05-07 12:45 | 47.43716 | 19.27051 | 477 ft | 22 kts | 291° |
| 2026-05-07 12:45 | 47.43752 | 19.26866 | 471 ft | 19 kts | 282° |
| 2026-05-07 12:45 | 47.43779 | 19.26679 | 466 ft | 19 kts | 282° |
| 2026-05-07 12:46 | 47.43802 | 19.26524 | 464 ft | 14 kts | 282° |
| 2026-05-07 12:46 | 47.43768 | 19.26440 | 463 ft | 11 kts | 218° |
| 2026-05-07 12:46 | 47.43707 | 19.26363 | 462 ft | 8 kts | 220° |
| 2026-05-07 12:46 | 47.43673 | 19.26345 | 463 ft | 6 kts | 161° |
| 2026-05-07 12:47 | 47.43637 | 19.26394 | 463 ft | 6 kts | 132° |
| 2026-05-07 12:47 | 47.43610 | 19.26434 | 463 ft | 6 kts | 160° |
| 2026-05-07 12:47 | 47.43587 | 19.26421 | 463 ft | 4 kts | 210° |
| 2026-05-07 12:47 | 47.43573 | 19.26404 | 460 ft | 3 kts | 224° |
| 2026-05-07 12:48 | 47.43565 | 19.26393 | 463 ft | 1 kts | 223° |